Doris, Washington
Current Conditions -  °F | °C
As of 2:56 PM on Friday 19 Dec 2014 (Local Time) from K1YT Reporting Station
Clear Clear  
Wind Chill: 42°   Ceiling: Unl
Heat Index: 42°   Visibility: 10mi
Dew Point: 38°   Wind: 1mph
Humidity: 83%   Direction: NA
Pressure: 29.96"   Gusts: NA
Location:  46.8679°N, 120.008°W
Report Text: K1YT 192256Z AUTO VRB01KT 10SM CLR 06/03 A2996 RMK AO2 SLPNO T00580032
Loading
Personal Weather Stations






























Interactive Weather Map New forecast layout! Learn more

10-Day Weather Forecast

Advertisements
Track Severe Weather on mobile